sensor_id;sensor_type;location;lat;lon;timestamp;pressure;altitude;pressure_sealevel;temperature
71630;BMP280;59479;51.902;8.212;2023-08-21T00:02:15;101588.72;;;22.89
71630;BMP280;59479;51.902;8.212;2023-08-21T00:04:41;101598.25;;;22.85
71630;BMP280;59479;51.902;8.212;2023-08-21T00:07:06;101599.91;;;22.86
71630;BMP280;59479;51.902;8.212;2023-08-21T00:09:31;101581.91;;;22.88
71630;BMP280;59479;51.902;8.212;2023-08-21T00:11:57;101590.56;;;22.85
71630;BMP280;59479;51.902;8.212;2023-08-21T00:14:22;101579.94;;;22.72
71630;BMP280;59479;51.902;8.212;2023-08-21T00:16:47;101580.25;;;22.63
71630;BMP280;59479;51.902;8.212;2023-08-21T00:19:13;101589.88;;;22.56
71630;BMP280;59479;51.902;8.212;2023-08-21T00:21:38;101583.91;;;22.56
71630;BMP280;59479;51.902;8.212;2023-08-21T00:24:03;101595.94;;;22.54
71630;BMP280;59479;51.902;8.212;2023-08-21T00:26:29;101592.78;;;22.46
71630;BMP280;59479;51.902;8.212;2023-08-21T00:28:54;101594.66;;;22.41
71630;BMP280;59479;51.902;8.212;2023-08-21T00:31:19;101591.09;;;22.45
71630;BMP280;59479;51.902;8.212;2023-08-21T00:33:45;101597.75;;;22.50
71630;BMP280;59479;51.902;8.212;2023-08-21T00:36:10;101588.31;;;22.52
71630;BMP280;59479;51.902;8.212;2023-08-21T00:38:36;101579.66;;;22.55
71630;BMP280;59479;51.902;8.212;2023-08-21T00:41:01;101576.28;;;22.54
71630;BMP280;59479;51.902;8.212;2023-08-21T00:43:26;101583.47;;;22.43
71630;BMP280;59479;51.902;8.212;2023-08-21T00:45:52;101590.81;;;22.28
71630;BMP280;59479;51.902;8.212;2023-08-21T00:48:17;101594.44;;;22.23
71630;BMP280;59479;51.902;8.212;2023-08-21T00:50:43;101599.59;;;22.21
71630;BMP280;59479;51.902;8.212;2023-08-21T00:53:10;101596.25;;;22.19
71630;BMP280;59479;51.902;8.212;2023-08-21T00:55:35;101593.53;;;22.24
71630;BMP280;59479;51.902;8.212;2023-08-21T00:58:01;101587.44;;;22.28
71630;BMP280;59479;51.902;8.212;2023-08-21T01:00:28;101588.13;;;22.33
71630;BMP280;59479;51.902;8.212;2023-08-21T01:02:54;101582.97;;;22.34
71630;BMP280;59479;51.902;8.212;2023-08-21T01:05:22;101595.94;;;22.28
71630;BMP280;59479;51.902;8.212;2023-08-21T01:13:34;101602.16;;;22.21
71630;BMP280;59479;51.902;8.212;2023-08-21T01:16:04;101614.88;;;22.24
71630;BMP280;59479;51.902;8.212;2023-08-21T01:18:30;101608.84;;;22.25
71630;BMP280;59479;51.902;8.212;2023-08-21T01:20:56;101608.06;;;22.23
71630;BMP280;59479;51.902;8.212;2023-08-21T01:25:54;101601.06;;;22.28
71630;BMP280;59479;51.902;8.212;2023-08-21T01:28:19;101601.16;;;22.25
71630;BMP280;59479;51.902;8.212;2023-08-21T01:30:45;101600.38;;;22.23
71630;BMP280;59479;51.902;8.212;2023-08-21T01:33:12;101603.00;;;22.22
71630;BMP280;59479;51.902;8.212;2023-08-21T01:35:39;101602.47;;;22.11
71630;BMP280;59479;51.902;8.212;2023-08-21T01:38:05;101608.69;;;22.04
71630;BMP280;59479;51.902;8.212;2023-08-21T01:40:31;101610.28;;;22.06
71630;BMP280;59479;51.902;8.212;2023-08-21T01:42:56;101595.72;;;22.08
71630;BMP280;59479;51.902;8.212;2023-08-21T01:45:22;101606.75;;;22.10
71630;BMP280;59479;51.902;8.212;2023-08-21T01:47:47;101601.81;;;22.04
71630;BMP280;59479;51.902;8.212;2023-08-21T01:50:13;101607.03;;;22.01
71630;BMP280;59479;51.902;8.212;2023-08-21T01:52:38;101594.25;;;22.01
71630;BMP280;59479;51.902;8.212;2023-08-21T01:55:04;101601.91;;;22.01
71630;BMP280;59479;51.902;8.212;2023-08-21T01:57:29;101597.13;;;21.91
71630;BMP280;59479;51.902;8.212;2023-08-21T01:59:55;101604.88;;;21.90
71630;BMP280;59479;51.902;8.212;2023-08-21T02:02:20;101598.88;;;21.91
71630;BMP280;59479;51.902;8.212;2023-08-21T02:04:45;101596.31;;;21.91
71630;BMP280;59479;51.902;8.212;2023-08-21T02:07:11;101597.28;;;21.87
71630;BMP280;59479;51.902;8.212;2023-08-21T02:09:36;101598.22;;;21.84
71630;BMP280;59479;51.902;8.212;2023-08-21T02:12:01;101598.34;;;21.80
71630;BMP280;59479;51.902;8.212;2023-08-21T02:14:27;101603.59;;;21.75
71630;BMP280;59479;51.902;8.212;2023-08-21T02:16:53;101597.66;;;21.75
71630;BMP280;59479;51.902;8.212;2023-08-21T02:19:18;101591.66;;;21.76
71630;BMP280;59479;51.902;8.212;2023-08-21T02:21:43;101590.97;;;21.71
71630;BMP280;59479;51.902;8.212;2023-08-21T02:24:09;101593.53;;;21.71
71630;BMP280;59479;51.902;8.212;2023-08-21T02:26:34;101594.25;;;21.74
71630;BMP280;59479;51.902;8.212;2023-08-21T02:28:59;101590.16;;;21.69
71630;BMP280;59479;51.902;8.212;2023-08-21T02:31:25;101597.06;;;21.65
71630;BMP280;59479;51.902;8.212;2023-08-21T02:33:50;101600.63;;;21.61
71630;BMP280;59479;51.902;8.212;2023-08-21T02:36:16;101609.81;;;21.67
71630;BMP280;59479;51.902;8.212;2023-08-21T02:38:41;101614.06;;;21.68
71630;BMP280;59479;51.902;8.212;2023-08-21T02:41:06;101607.19;;;21.70
71630;BMP280;59479;51.902;8.212;2023-08-21T02:43:33;101608.75;;;21.74
71630;BMP280;59479;51.902;8.212;2023-08-21T02:45:58;101595.00;;;21.78
71630;BMP280;59479;51.902;8.212;2023-08-21T02:48:23;101593.22;;;21.80
71630;BMP280;59479;51.902;8.212;2023-08-21T02:50:49;101595.06;;;21.76
71630;BMP280;59479;51.902;8.212;2023-08-21T02:53:14;101604.59;;;21.71
71630;BMP280;59479;51.902;8.212;2023-08-21T02:55:39;101601.38;;;21.65
71630;BMP280;59479;51.902;8.212;2023-08-21T02:58:04;101601.56;;;21.59
71630;BMP280;59479;51.902;8.212;2023-08-21T03:00:30;101599.88;;;21.58
71630;BMP280;59479;51.902;8.212;2023-08-21T03:02:55;101602.31;;;21.62
71630;BMP280;59479;51.902;8.212;2023-08-21T03:05:20;101605.78;;;21.60
71630;BMP280;59479;51.902;8.212;2023-08-21T03:07:46;101605.66;;;21.64
71630;BMP280;59479;51.902;8.212;2023-08-21T03:10:11;101598.88;;;21.62
71630;BMP280;59479;51.902;8.212;2023-08-21T03:12:37;101598.06;;;21.61
71630;BMP280;59479;51.902;8.212;2023-08-21T03:15:03;101601.56;;;21.59
71630;BMP280;59479;51.902;8.212;2023-08-21T03:17:28;101601.66;;;21.56
71630;BMP280;59479;51.902;8.212;2023-08-21T03:19:53;101595.63;;;21.57
71630;BMP280;59479;51.902;8.212;2023-08-21T03:22:19;101590.44;;;21.60
71630;BMP280;59479;51.902;8.212;2023-08-21T03:24:44;101596.66;;;21.51
71630;BMP280;59479;51.902;8.212;2023-08-21T03:27:09;101592.47;;;21.49
71630;BMP280;59479;51.902;8.212;2023-08-21T03:29:35;101589.19;;;21.46
71630;BMP280;59479;51.902;8.212;2023-08-21T03:32:00;101589.06;;;21.49
71630;BMP280;59479;51.902;8.212;2023-08-21T03:34:25;101589.19;;;21.46
71630;BMP280;59479;51.902;8.212;2023-08-21T03:36:50;101595.16;;;21.45
71630;BMP280;59479;51.902;8.212;2023-08-21T03:39:16;101584.94;;;21.45
71630;BMP280;59479;51.902;8.212;2023-08-21T03:41:41;101592.59;;;21.45
71630;BMP280;59479;51.902;8.212;2023-08-21T03:44:06;101587.44;;;21.46
71630;BMP280;59479;51.902;8.212;2023-08-21T03:46:32;101579.78;;;21.46
71630;BMP280;59479;51.902;8.212;2023-08-21T03:48:57;101580.56;;;21.48
71630;BMP280;59479;51.902;8.212;2023-08-21T03:51:23;101575.53;;;21.45
71630;BMP280;59479;51.902;8.212;2023-08-21T03:53:49;101580.84;;;21.38
71630;BMP280;59479;51.902;8.212;2023-08-21T03:56:14;101585.34;;;21.30
71630;BMP280;59479;51.902;8.212;2023-08-21T03:58:42;101593.84;;;21.30
71630;BMP280;59479;51.902;8.212;2023-08-21T04:01:07;101588.88;;;21.26
71630;BMP280;59479;51.902;8.212;2023-08-21T04:03:33;101598.56;;;21.15
71630;BMP280;59479;51.902;8.212;2023-08-21T04:05:58;101602.81;;;21.16
71630;BMP280;59479;51.902;8.212;2023-08-21T04:08:24;101619.84;;;21.15
71630;BMP280;59479;51.902;8.212;2023-08-21T04:10:49;101627.44;;;21.18
71630;BMP280;59479;51.902;8.212;2023-08-21T04:13:15;101613.69;;;21.22
71630;BMP280;59479;51.902;8.212;2023-08-21T04:15:45;101605.09;;;21.25
71630;BMP280;59479;51.902;8.212;2023-08-21T04:18:10;101607.56;;;21.28
71630;BMP280;59479;51.902;8.212;2023-08-21T04:20:36;101608.31;;;21.31
71630;BMP280;59479;51.902;8.212;2023-08-21T04:23:02;101609.22;;;21.29
71630;BMP280;59479;51.902;8.212;2023-08-21T04:25:27;101610.16;;;21.26
71630;BMP280;59479;51.902;8.212;2023-08-21T04:27:52;101621.44;;;21.19
71630;BMP280;59479;51.902;8.212;2023-08-21T04:30:18;101639.47;;;21.15
71630;BMP280;59479;51.902;8.212;2023-08-21T04:32:43;101640.19;;;21.20
71630;BMP280;59479;51.902;8.212;2023-08-21T04:35:09;101626.53;;;21.21
71630;BMP280;59479;51.902;8.212;2023-08-21T04:37:34;101606.91;;;21.21
71630;BMP280;59479;51.902;8.212;2023-08-21T04:39:59;101598.22;;;21.27
71630;BMP280;59479;51.902;8.212;2023-08-21T04:42:25;101595.59;;;21.28
71630;BMP280;59479;51.902;8.212;2023-08-21T04:44:50;101598.88;;;21.33
71630;BMP280;59479;51.902;8.212;2023-08-21T04:47:23;101596.31;;;21.33
71630;BMP280;59479;51.902;8.212;2023-08-21T04:49:51;101607.44;;;21.32
71630;BMP280;59479;51.902;8.212;2023-08-21T04:52:17;101611.75;;;21.30
71630;BMP280;59479;51.902;8.212;2023-08-21T04:54:42;101632.38;;;21.24
71630;BMP280;59479;51.902;8.212;2023-08-21T04:57:07;101642.78;;;21.18
71630;BMP280;59479;51.902;8.212;2023-08-21T04:59:34;101647.22;;;21.12
71630;BMP280;59479;51.902;8.212;2023-08-21T05:01:59;101647.97;;;21.15
71630;BMP280;59479;51.902;8.212;2023-08-21T05:04:25;101639.28;;;21.22
71630;BMP280;59479;51.902;8.212;2023-08-21T05:06:50;101627.19;;;21.27
71630;BMP280;59479;51.902;8.212;2023-08-21T05:09:15;101609.22;;;21.29
71630;BMP280;59479;51.902;8.212;2023-08-21T05:11:40;101606.63;;;21.30
71630;BMP280;59479;51.902;8.212;2023-08-21T05:14:06;101607.44;;;21.32
71630;BMP280;59479;51.902;8.212;2023-08-21T05:16:31;101602.25;;;21.34
71630;BMP280;59479;51.902;8.212;2023-08-21T05:18:57;101597.97;;;21.36
71630;BMP280;59479;51.902;8.212;2023-08-21T05:21:22;101601.34;;;21.36
71630;BMP280;59479;51.902;8.212;2023-08-21T05:23:47;101601.44;;;21.33
71630;BMP280;59479;51.902;8.212;2023-08-21T05:26:13;101605.84;;;21.28
71630;BMP280;59479;51.902;8.212;2023-08-21T05:28:38;101623.81;;;21.25
71630;BMP280;59479;51.902;8.212;2023-08-21T05:31:03;101620.50;;;21.22
71630;BMP280;59479;51.902;8.212;2023-08-21T05:33:29;101615.44;;;21.20
71630;BMP280;59479;51.902;8.212;2023-08-21T05:35:56;101630.63;;;21.26
71630;BMP280;59479;51.902;8.212;2023-08-21T05:38:22;101624.56;;;21.29
71630;BMP280;59479;51.902;8.212;2023-08-21T05:40:48;101627.00;;;21.33
71630;BMP280;59479;51.902;8.212;2023-08-21T05:43:13;101623.63;;;21.33
71630;BMP280;59479;51.902;8.212;2023-08-21T05:45:38;101623.59;;;21.34
71630;BMP280;59479;51.902;8.212;2023-08-21T05:48:04;101636.44;;;21.31
71630;BMP280;59479;51.902;8.212;2023-08-21T05:50:29;101632.13;;;21.33
71630;BMP280;59479;51.902;8.212;2023-08-21T05:52:54;101639.75;;;21.35
71630;BMP280;59479;51.902;8.212;2023-08-21T05:55:20;101627.94;;;21.31
71630;BMP280;59479;51.902;8.212;2023-08-21T05:57:45;101632.75;;;21.41
71630;BMP280;59479;51.902;8.212;2023-08-21T06:00:12;101636.06;;;21.46
71630;BMP280;59479;51.902;8.212;2023-08-21T06:02:37;101632.50;;;21.50
71630;BMP280;59479;51.902;8.212;2023-08-21T06:05:03;101629.88;;;21.53
71630;BMP280;59479;51.902;8.212;2023-08-21T06:07:28;101628.94;;;21.55
71630;BMP280;59479;51.902;8.212;2023-08-21T06:09:53;101637.31;;;21.60
71630;BMP280;59479;51.902;8.212;2023-08-21T06:12:19;101632.13;;;21.63
71630;BMP280;59479;51.902;8.212;2023-08-21T06:14:44;101631.00;;;21.72
71630;BMP280;59479;51.902;8.212;2023-08-21T06:17:09;101639.38;;;21.77
71630;BMP280;59479;51.902;8.212;2023-08-21T06:19:35;101650.41;;;21.79
71630;BMP280;59479;51.902;8.212;2023-08-21T06:22:01;101652.19;;;21.77
71630;BMP280;59479;51.902;8.212;2023-08-21T06:24:26;101652.19;;;21.77
71630;BMP280;59479;51.902;8.212;2023-08-21T06:26:52;101652.19;;;21.77
71630;BMP280;59479;51.902;8.212;2023-08-21T06:29:17;101637.53;;;21.82
71630;BMP280;59479;51.902;8.212;2023-08-21T06:31:45;101640.00;;;21.85
71630;BMP280;59479;51.902;8.212;2023-08-21T06:34:10;101640.69;;;21.90
71630;BMP280;59479;51.902;8.212;2023-08-21T06:36:36;101638.00;;;21.94
71630;BMP280;59479;51.902;8.212;2023-08-21T06:39:01;101649.81;;;21.98
71630;BMP280;59479;51.902;8.212;2023-08-21T06:41:27;101646.28;;;22.02
71630;BMP280;59479;51.902;8.212;2023-08-21T06:43:53;101647.66;;;22.12
71630;BMP280;59479;51.902;8.212;2023-08-21T06:46:18;101650.91;;;22.18
71630;BMP280;59479;51.902;8.212;2023-08-21T06:48:43;101650.78;;;22.23
71630;BMP280;59479;51.902;8.212;2023-08-21T06:51:09;101656.69;;;22.25
71630;BMP280;59479;51.902;8.212;2023-08-21T06:53:35;101653.88;;;22.32
71630;BMP280;59479;51.902;8.212;2023-08-21T06:56:00;101649.44;;;22.37
71630;BMP280;59479;51.902;8.212;2023-08-21T06:58:26;101647.69;;;22.39
71630;BMP280;59479;51.902;8.212;2023-08-21T07:00:53;101649.16;;;22.46
71630;BMP280;59479;51.902;8.212;2023-08-21T07:03:19;101639.69;;;22.48
71630;BMP280;59479;51.902;8.212;2023-08-21T07:05:58;101643.59;;;22.59
71630;BMP280;59479;51.902;8.212;2023-08-21T07:08:24;101651.78;;;22.69
71630;BMP280;59479;51.902;8.212;2023-08-21T07:10:51;101643.19;;;22.71
71630;BMP280;59479;51.902;8.212;2023-08-21T07:13:16;101654.84;;;22.79
71630;BMP280;59479;51.902;8.212;2023-08-21T07:15:42;101650.34;;;22.86
71630;BMP280;59479;51.902;8.212;2023-08-21T07:18:07;101650.00;;;22.96
71630;BMP280;59479;51.902;8.212;2023-08-21T07:20:33;101649.84;;;23.01
71630;BMP280;59479;51.902;8.212;2023-08-21T07:22:59;101647.13;;;23.05
71630;BMP280;59479;51.902;8.212;2023-08-21T07:25:24;101657.16;;;23.11
71630;BMP280;59479;51.902;8.212;2023-08-21T07:27:50;101658.63;;;23.18
71630;BMP280;59479;51.902;8.212;2023-08-21T07:30:18;101648.88;;;23.27
71630;BMP280;59479;51.902;8.212;2023-08-21T07:32:44;101651.16;;;23.35
71630;BMP280;59479;51.902;8.212;2023-08-21T07:35:09;101650.94;;;23.41
71630;BMP280;59479;51.902;8.212;2023-08-21T07:37:34;101647.38;;;23.45
71630;BMP280;59479;51.902;8.212;2023-08-21T07:39:59;101639.16;;;23.58
71630;BMP280;59479;51.902;8.212;2023-08-21T07:42:25;101642.03;;;23.51
71630;BMP280;59479;51.902;8.212;2023-08-21T07:44:50;101642.69;;;23.56
71630;BMP280;59479;51.902;8.212;2023-08-21T07:47:15;101644.94;;;23.64
71630;BMP280;59479;51.902;8.212;2023-08-21T07:49:41;101641.84;;;23.78
71630;BMP280;59479;51.902;8.212;2023-08-21T07:52:06;101646.06;;;23.80
71630;BMP280;59479;51.902;8.212;2023-08-21T07:54:32;101643.19;;;23.88
71630;BMP280;59479;51.902;8.212;2023-08-21T07:56:57;101653.28;;;23.92
71630;BMP280;59479;51.902;8.212;2023-08-21T07:59:22;101636.19;;;23.91
71630;BMP280;59479;51.902;8.212;2023-08-21T08:01:47;101637.69;;;23.97
71630;BMP280;59479;51.902;8.212;2023-08-21T08:04:13;101638.00;;;24.10
71630;BMP280;59479;51.902;8.212;2023-08-21T08:06:38;101644.50;;;24.19
71630;BMP280;59479;51.902;8.212;2023-08-21T08:09:04;101653.28;;;24.35
71630;BMP280;59479;51.902;8.212;2023-08-21T08:11:29;101651.31;;;24.41
71630;BMP280;59479;51.902;8.212;2023-08-21T08:13:55;101647.53;;;24.49
71630;BMP280;59479;51.902;8.212;2023-08-21T08:16:21;101640.28;;;24.59
71630;BMP280;59479;51.902;8.212;2023-08-21T08:18:46;101641.69;;;24.66
71630;BMP280;59479;51.902;8.212;2023-08-21T08:21:11;101645.63;;;24.74
71630;BMP280;59479;51.902;8.212;2023-08-21T08:23:37;101644.47;;;24.81
71630;BMP280;59479;51.902;8.212;2023-08-21T08:26:02;101644.41;;;24.83
71630;BMP280;59479;51.902;8.212;2023-08-21T08:28:28;101652.41;;;24.95
71630;BMP280;59479;51.902;8.212;2023-08-21T08:30:53;101650.69;;;24.97
71630;BMP280;59479;51.902;8.212;2023-08-21T08:33:19;101650.09;;;25.10
71630;BMP280;59479;51.902;8.212;2023-08-21T08:35:44;101654.25;;;25.13
71630;BMP280;59479;51.902;8.212;2023-08-21T08:38:09;101651.19;;;25.23
71630;BMP280;59479;51.902;8.212;2023-08-21T08:40:37;101636.19;;;25.33
71630;BMP280;59479;51.902;8.212;2023-08-21T08:43:04;101638.22;;;25.44
71630;BMP280;59479;51.902;8.212;2023-08-21T08:45:31;101634.69;;;25.47
71630;BMP280;59479;51.902;8.212;2023-08-21T08:47:59;101640.66;;;25.47
71630;BMP280;59479;51.902;8.212;2023-08-21T08:50:28;101638.31;;;25.61
71630;BMP280;59479;51.902;8.212;2023-08-21T08:52:55;101641.38;;;25.69
71630;BMP280;59479;51.902;8.212;2023-08-21T08:55:20;101640.06;;;25.79
71630;BMP280;59479;51.902;8.212;2023-08-21T08:57:46;101635.47;;;25.85
71630;BMP280;59479;51.902;8.212;2023-08-21T09:00:11;101635.00;;;25.94
71630;BMP280;59479;51.902;8.212;2023-08-21T09:02:37;101635.63;;;25.99
71630;BMP280;59479;51.902;8.212;2023-08-21T09:05:02;101634.44;;;26.06
71630;BMP280;59479;51.902;8.212;2023-08-21T09:07:29;101625.44;;;26.15
71630;BMP280;59479;51.902;8.212;2023-08-21T09:09:55;101636.41;;;26.18
71630;BMP280;59479;51.902;8.212;2023-08-21T09:12:21;101632.69;;;26.25
71630;BMP280;59479;51.902;8.212;2023-08-21T09:14:47;101629.88;;;26.29
71630;BMP280;59479;51.902;8.212;2023-08-21T09:17:12;101619.28;;;26.35
71630;BMP280;59479;51.902;8.212;2023-08-21T09:19:38;101619.88;;;26.40
71630;BMP280;59479;51.902;8.212;2023-08-21T09:22:15;101619.72;;;26.43
71630;BMP280;59479;51.902;8.212;2023-08-21T09:25:00;101626.34;;;26.49
71630;BMP280;59479;51.902;8.212;2023-08-21T09:27:25;101616.47;;;26.57
71630;BMP280;59479;51.902;8.212;2023-08-21T09:29:50;101620.16;;;26.68
71630;BMP280;59479;51.902;8.212;2023-08-21T09:32:19;101617.38;;;26.72
71630;BMP280;59479;51.902;8.212;2023-08-21T09:34:44;101625.31;;;26.85
71630;BMP280;59479;51.902;8.212;2023-08-21T09:37:11;101622.53;;;26.89
71630;BMP280;59479;51.902;8.212;2023-08-21T09:39:37;101623.13;;;26.94
71630;BMP280;59479;51.902;8.212;2023-08-21T09:42:08;101619.38;;;27.00
71630;BMP280;59479;51.902;8.212;2023-08-21T09:44:38;101625.06;;;27.06
71630;BMP280;59479;51.902;8.212;2023-08-21T09:47:04;101616.00;;;27.14
71630;BMP280;59479;51.902;8.212;2023-08-21T09:49:33;101609.59;;;27.21
71630;BMP280;59479;51.902;8.212;2023-08-21T09:51:59;101604.13;;;27.27
71630;BMP280;59479;51.902;8.212;2023-08-21T09:54:24;101608.41;;;27.28
71630;BMP280;59479;51.902;8.212;2023-08-21T09:56:50;101612.22;;;27.37
71630;BMP280;59479;51.902;8.212;2023-08-21T09:59:16;101610.88;;;27.47
71630;BMP280;59479;51.902;8.212;2023-08-21T10:01:43;101614.84;;;27.52
71630;BMP280;59479;51.902;8.212;2023-08-21T10:04:10;101615.00;;;27.64
71630;BMP280;59479;51.902;8.212;2023-08-21T10:06:36;101617.66;;;27.63
71630;BMP280;59479;51.902;8.212;2023-08-21T10:09:02;101605.19;;;27.71
71630;BMP280;59479;51.902;8.212;2023-08-21T10:11:27;101610.50;;;27.68
71630;BMP280;59479;51.902;8.212;2023-08-21T10:13:53;101612.34;;;27.81
71630;BMP280;59479;51.902;8.212;2023-08-21T10:16:19;101607.34;;;27.93
71630;BMP280;59479;51.902;8.212;2023-08-21T10:18:46;101604.47;;;27.98
71630;BMP280;59479;51.902;8.212;2023-08-21T10:21:20;101608.91;;;27.96
71630;BMP280;59479;51.902;8.212;2023-08-21T10:23:49;101607.34;;;28.09
71630;BMP280;59479;51.902;8.212;2023-08-21T10:26:18;101615.97;;;28.23
71630;BMP280;59479;51.902;8.212;2023-08-21T10:29:13;101615.63;;;28.29
71630;BMP280;59479;51.902;8.212;2023-08-21T10:31:40;101610.28;;;28.32
71630;BMP280;59479;51.902;8.212;2023-08-21T10:34:07;101613.06;;;28.43
71630;BMP280;59479;51.902;8.212;2023-08-21T10:37:02;101602.38;;;28.49
71630;BMP280;59479;51.902;8.212;2023-08-21T10:39:29;101603.09;;;28.51
71630;BMP280;59479;51.902;8.212;2023-08-21T10:42:07;101609.50;;;28.59
71630;BMP280;59479;51.902;8.212;2023-08-21T10:47:23;101600.56;;;28.65
71630;BMP280;59479;51.902;8.212;2023-08-21T10:50:06;101598.09;;;28.63
71630;BMP280;59479;51.902;8.212;2023-08-21T10:52:36;101594.47;;;28.66
71630;BMP280;59479;51.902;8.212;2023-08-21T10:55:03;101594.31;;;28.69
71630;BMP280;59479;51.902;8.212;2023-08-21T10:57:32;101589.47;;;28.63
71630;BMP280;59479;51.902;8.212;2023-08-21T11:00:10;101598.31;;;28.59
71630;BMP280;59479;51.902;8.212;2023-08-21T11:02:37;101600.31;;;28.69
71630;BMP280;59479;51.902;8.212;2023-08-21T11:05:04;101594.13;;;28.72
71630;BMP280;59479;51.902;8.212;2023-08-21T11:07:30;101584.34;;;28.77
71630;BMP280;59479;51.902;8.212;2023-08-21T11:09:55;101584.25;;;28.78
71630;BMP280;59479;51.902;8.212;2023-08-21T11:12:22;101582.66;;;28.89
71630;BMP280;59479;51.902;8.212;2023-08-21T11:14:48;101584.50;;;29.01
71630;BMP280;59479;51.902;8.212;2023-08-21T11:17:14;101591.28;;;29.04
71630;BMP280;59479;51.902;8.212;2023-08-21T11:19:40;101594.84;;;29.01
71630;BMP280;59479;51.902;8.212;2023-08-21T11:22:06;101595.22;;;29.09
71630;BMP280;59479;51.902;8.212;2023-08-21T11:24:39;101592.19;;;29.17
71630;BMP280;59479;51.902;8.212;2023-08-21T11:27:05;101589.78;;;29.14
71630;BMP280;59479;51.902;8.212;2023-08-21T11:29:45;101587.66;;;29.06
71630;BMP280;59479;51.902;8.212;2023-08-21T11:32:15;101581.47;;;29.22
71630;BMP280;59479;51.902;8.212;2023-08-21T11:34:55;101584.53;;;29.29
71630;BMP280;59479;51.902;8.212;2023-08-21T11:37:25;101585.84;;;29.22
71630;BMP280;59479;51.902;8.212;2023-08-21T11:39:58;101582.56;;;29.32
71630;BMP280;59479;51.902;8.212;2023-08-21T11:42:31;101582.66;;;29.45
71630;BMP280;59479;51.902;8.212;2023-08-21T11:44:56;101576.72;;;29.43
71630;BMP280;59479;51.902;8.212;2023-08-21T11:47:23;101591.34;;;29.44
71630;BMP280;59479;51.902;8.212;2023-08-21T11:49:49;101585.94;;;29.61
71630;BMP280;59479;51.902;8.212;2023-08-21T11:52:22;101590.19;;;29.75
71630;BMP280;59479;51.902;8.212;2023-08-21T11:54:51;101578.22;;;29.73
71630;BMP280;59479;51.902;8.212;2023-08-21T11:57:18;101587.59;;;29.75
71630;BMP280;59479;51.902;8.212;2023-08-21T11:59:53;101579.31;;;29.83
71630;BMP280;59479;51.902;8.212;2023-08-21T12:02:25;101586.41;;;29.93
71630;BMP280;59479;51.902;8.212;2023-08-21T12:05:03;101576.97;;;29.92
71630;BMP280;59479;51.902;8.212;2023-08-21T12:07:30;101576.25;;;30.03
71630;BMP280;59479;51.902;8.212;2023-08-21T12:09:55;101577.94;;;30.16
71630;BMP280;59479;51.902;8.212;2023-08-21T12:12:20;101583.13;;;30.16
71630;BMP280;59479;51.902;8.212;2023-08-21T12:14:46;101594.47;;;30.15
71630;BMP280;59479;51.902;8.212;2023-08-21T12:17:11;101588.47;;;30.27
71630;BMP280;59479;51.902;8.212;2023-08-21T12:19:37;101586.59;;;30.29
71630;BMP280;59479;51.902;8.212;2023-08-21T12:22:03;101580.88;;;30.24
71630;BMP280;59479;51.902;8.212;2023-08-21T12:24:28;101581.69;;;30.24
71630;BMP280;59479;51.902;8.212;2023-08-21T12:26:53;101583.19;;;30.28
71630;BMP280;59479;51.902;8.212;2023-08-21T12:29:19;101575.59;;;30.13
71630;BMP280;59479;51.902;8.212;2023-08-21T12:31:44;101570.88;;;30.32
71630;BMP280;59479;51.902;8.212;2023-08-21T12:34:09;101575.22;;;30.44
71630;BMP280;59479;51.902;8.212;2023-08-21T12:36:35;101560.28;;;30.47
71630;BMP280;59479;51.902;8.212;2023-08-21T12:39:04;101557.19;;;30.42
71630;BMP280;59479;51.902;8.212;2023-08-21T12:41:30;101561.22;;;30.34
71630;BMP280;59479;51.902;8.212;2023-08-21T12:43:55;101574.84;;;30.50
71630;BMP280;59479;51.902;8.212;2023-08-21T12:46:21;101557.50;;;30.50
71630;BMP280;59479;51.902;8.212;2023-08-21T12:48:46;101562.28;;;30.68
71630;BMP280;59479;51.902;8.212;2023-08-21T12:51:12;101556.53;;;30.76
71630;BMP280;59479;51.902;8.212;2023-08-21T12:53:37;101565.19;;;30.76
71630;BMP280;59479;51.902;8.212;2023-08-21T12:56:02;101558.13;;;30.78
71630;BMP280;59479;51.902;8.212;2023-08-21T12:58:29;101543.91;;;30.84
71630;BMP280;59479;51.902;8.212;2023-08-21T13:00:54;101550.56;;;30.63
71630;BMP280;59479;51.902;8.212;2023-08-21T13:03:20;101555.09;;;30.59
71630;BMP280;59479;51.902;8.212;2023-08-21T13:05:45;101547.53;;;30.56
71630;BMP280;59479;51.902;8.212;2023-08-21T13:08:10;101549.59;;;30.64
71630;BMP280;59479;51.902;8.212;2023-08-21T13:10:36;101554.38;;;30.70
71630;BMP280;59479;51.902;8.212;2023-08-21T13:13:01;101548.78;;;30.63
71630;BMP280;59479;51.902;8.212;2023-08-21T13:15:27;101546.91;;;30.53
71630;BMP280;59479;51.902;8.212;2023-08-21T13:17:55;101537.44;;;30.64
71630;BMP280;59479;51.902;8.212;2023-08-21T13:20:20;101547.09;;;30.62
71630;BMP280;59479;51.902;8.212;2023-08-21T13:22:52;101537.16;;;30.56
71630;BMP280;59479;51.902;8.212;2023-08-21T13:25:19;101537.69;;;30.61
71630;BMP280;59479;51.902;8.212;2023-08-21T13:27:48;101539.44;;;30.73
71630;BMP280;59479;51.902;8.212;2023-08-21T13:30:13;101538.19;;;30.66
71630;BMP280;59479;51.902;8.212;2023-08-21T13:32:39;101540.88;;;30.77
71630;BMP280;59479;51.902;8.212;2023-08-21T13:35:04;101548.19;;;30.85
71630;BMP280;59479;51.902;8.212;2023-08-21T13:37:32;101544.78;;;30.83
71630;BMP280;59479;51.902;8.212;2023-08-21T13:39:58;101546.50;;;30.71
71630;BMP280;59479;51.902;8.212;2023-08-21T13:42:25;101547.00;;;30.76
71630;BMP280;59479;51.902;8.212;2023-08-21T13:44:51;101537.66;;;30.74
71630;BMP280;59479;51.902;8.212;2023-08-21T13:47:16;101542.31;;;30.69
71630;BMP280;59479;51.902;8.212;2023-08-21T13:49:41;101536.13;;;30.71
71630;BMP280;59479;51.902;8.212;2023-08-21T13:52:07;101539.09;;;30.78
71630;BMP280;59479;51.902;8.212;2023-08-21T13:54:32;101534.44;;;30.70
71630;BMP280;59479;51.902;8.212;2023-08-21T13:56:57;101528.72;;;30.65
71630;BMP280;59479;51.902;8.212;2023-08-21T13:59:25;101542.44;;;30.67
71630;BMP280;59479;51.902;8.212;2023-08-21T14:01:50;101519.69;;;30.71
71630;BMP280;59479;51.902;8.212;2023-08-21T14:04:15;101524.28;;;30.80